sensor_id;sensor_type;location;lat;lon;timestamp;P1;durP1;ratioP1;P2;durP2;ratioP2
5785;SDS011;2919;48.630;9.000;2023-04-25T00:00:05;2.50;;;1.50;;
5785;SDS011;2919;48.630;9.000;2023-04-25T00:02:32;4.13;;;1.83;;
5785;SDS011;2919;48.630;9.000;2023-04-25T00:04:59;7.33;;;2.00;;
5785;SDS011;2919;48.630;9.000;2023-04-25T00:07:26;2.30;;;1.40;;
5785;SDS011;2919;48.630;9.000;2023-04-25T00:09:52;12.50;;;1.77;;
5785;SDS011;2919;48.630;9.000;2023-04-25T00:12:18;5.50;;;2.37;;
5785;SDS011;2919;48.630;9.000;2023-04-25T00:14:43;1.67;;;0.90;;
5785;SDS011;2919;48.630;9.000;2023-04-25T00:17:10;5.23;;;1.80;;
5785;SDS011;2919;48.630;9.000;2023-04-25T00:19:36;2.70;;;1.70;;
5785;SDS011;2919;48.630;9.000;2023-04-25T00:22:02;3.20;;;1.47;;
5785;SDS011;2919;48.630;9.000;2023-04-25T00:24:28;3.23;;;1.60;;
5785;SDS011;2919;48.630;9.000;2023-04-25T00:26:54;4.10;;;1.13;;
5785;SDS011;2919;48.630;9.000;2023-04-25T00:29:19;2.03;;;1.50;;
5785;SDS011;2919;48.630;9.000;2023-04-25T00:31:45;2.73;;;1.77;;
5785;SDS011;2919;48.630;9.000;2023-04-25T00:34:10;5.90;;;1.60;;
5785;SDS011;2919;48.630;9.000;2023-04-25T00:36:36;4.60;;;1.57;;
5785;SDS011;2919;48.630;9.000;2023-04-25T00:39:03;2.67;;;1.40;;
5785;SDS011;2919;48.630;9.000;2023-04-25T00:41:29;3.20;;;1.80;;
5785;SDS011;2919;48.630;9.000;2023-04-25T00:43:55;4.27;;;1.93;;
5785;SDS011;2919;48.630;9.000;2023-04-25T00:46:22;3.10;;;1.53;;
5785;SDS011;2919;48.630;9.000;2023-04-25T00:48:48;2.47;;;1.37;;
5785;SDS011;2919;48.630;9.000;2023-04-25T00:51:15;1.97;;;1.00;;
5785;SDS011;2919;48.630;9.000;2023-04-25T00:53:44;2.17;;;1.30;;
5785;SDS011;2919;48.630;9.000;2023-04-25T00:56:11;2.70;;;1.73;;
5785;SDS011;2919;48.630;9.000;2023-04-25T00:58:37;3.00;;;1.50;;
5785;SDS011;2919;48.630;9.000;2023-04-25T01:01:05;1.83;;;0.93;;
5785;SDS011;2919;48.630;9.000;2023-04-25T01:03:32;3.00;;;1.47;;
5785;SDS011;2919;48.630;9.000;2023-04-25T01:06:01;5.20;;;1.63;;
5785;SDS011;2919;48.630;9.000;2023-04-25T01:08:28;1.90;;;1.07;;
5785;SDS011;2919;48.630;9.000;2023-04-25T01:10:53;2.30;;;1.23;;
5785;SDS011;2919;48.630;9.000;2023-04-25T01:13:19;2.63;;;1.40;;
5785;SDS011;2919;48.630;9.000;2023-04-25T01:15:45;2.17;;;1.33;;
5785;SDS011;2919;48.630;9.000;2023-04-25T01:18:10;2.27;;;1.63;;
5785;SDS011;2919;48.630;9.000;2023-04-25T01:20:37;3.20;;;1.20;;
5785;SDS011;2919;48.630;9.000;2023-04-25T01:23:05;2.10;;;1.20;;
5785;SDS011;2919;48.630;9.000;2023-04-25T01:25:31;4.57;;;1.53;;
5785;SDS011;2919;48.630;9.000;2023-04-25T01:27:57;2.90;;;1.37;;
5785;SDS011;2919;48.630;9.000;2023-04-25T01:30:23;1.80;;;1.27;;
5785;SDS011;2919;48.630;9.000;2023-04-25T01:32:54;2.87;;;1.60;;
5785;SDS011;2919;48.630;9.000;2023-04-25T01:35:20;3.67;;;1.83;;
5785;SDS011;2919;48.630;9.000;2023-04-25T01:37:48;5.90;;;1.43;;
5785;SDS011;2919;48.630;9.000;2023-04-25T01:40:14;3.60;;;1.57;;
5785;SDS011;2919;48.630;9.000;2023-04-25T01:42:41;3.50;;;1.70;;
5785;SDS011;2919;48.630;9.000;2023-04-25T01:45:08;2.60;;;1.23;;
5785;SDS011;2919;48.630;9.000;2023-04-25T01:47:35;4.10;;;1.90;;
5785;SDS011;2919;48.630;9.000;2023-04-25T01:50:02;2.10;;;1.27;;
5785;SDS011;2919;48.630;9.000;2023-04-25T01:52:29;6.63;;;1.67;;
5785;SDS011;2919;48.630;9.000;2023-04-25T01:54:55;2.00;;;1.27;;
5785;SDS011;2919;48.630;9.000;2023-04-25T01:57:22;4.77;;;2.30;;
5785;SDS011;2919;48.630;9.000;2023-04-25T01:59:48;4.00;;;1.60;;
5785;SDS011;2919;48.630;9.000;2023-04-25T02:02:14;4.00;;;1.63;;
5785;SDS011;2919;48.630;9.000;2023-04-25T02:04:40;3.93;;;1.60;;
5785;SDS011;2919;48.630;9.000;2023-04-25T02:07:05;4.27;;;2.20;;
5785;SDS011;2919;48.630;9.000;2023-04-25T02:09:31;3.57;;;1.77;;
5785;SDS011;2919;48.630;9.000;2023-04-25T02:11:57;4.40;;;1.30;;
5785;SDS011;2919;48.630;9.000;2023-04-25T02:14:23;2.33;;;1.33;;
5785;SDS011;2919;48.630;9.000;2023-04-25T02:16:49;1.70;;;1.20;;
5785;SDS011;2919;48.630;9.000;2023-04-25T02:19:16;2.97;;;1.40;;
5785;SDS011;2919;48.630;9.000;2023-04-25T02:21:41;2.73;;;1.47;;
5785;SDS011;2919;48.630;9.000;2023-04-25T02:24:07;8.60;;;1.37;;
5785;SDS011;2919;48.630;9.000;2023-04-25T02:26:33;4.73;;;1.73;;
5785;SDS011;2919;48.630;9.000;2023-04-25T02:28:58;4.27;;;1.20;;
5785;SDS011;2919;48.630;9.000;2023-04-25T02:31:24;3.40;;;1.53;;
5785;SDS011;2919;48.630;9.000;2023-04-25T02:33:51;4.30;;;1.70;;
5785;SDS011;2919;48.630;9.000;2023-04-25T02:36:16;1.80;;;1.20;;
5785;SDS011;2919;48.630;9.000;2023-04-25T02:38:42;1.77;;;1.07;;
5785;SDS011;2919;48.630;9.000;2023-04-25T02:41:07;2.87;;;1.23;;
5785;SDS011;2919;48.630;9.000;2023-04-25T02:43:33;2.90;;;1.67;;
5785;SDS011;2919;48.630;9.000;2023-04-25T02:45:58;2.33;;;1.33;;
5785;SDS011;2919;48.630;9.000;2023-04-25T02:48:24;6.20;;;2.20;;
5785;SDS011;2919;48.630;9.000;2023-04-25T02:50:50;5.53;;;1.57;;
5785;SDS011;2919;48.630;9.000;2023-04-25T02:53:15;2.17;;;1.20;;
5785;SDS011;2919;48.630;9.000;2023-04-25T02:55:41;2.70;;;1.60;;
5785;SDS011;2919;48.630;9.000;2023-04-25T02:58:06;2.93;;;1.30;;
5785;SDS011;2919;48.630;9.000;2023-04-25T03:00:32;3.50;;;1.77;;
5785;SDS011;2919;48.630;9.000;2023-04-25T03:02:58;4.90;;;1.67;;
5785;SDS011;2919;48.630;9.000;2023-04-25T03:05:23;5.03;;;2.13;;
5785;SDS011;2919;48.630;9.000;2023-04-25T03:07:49;2.90;;;1.80;;
5785;SDS011;2919;48.630;9.000;2023-04-25T03:10:14;2.90;;;1.50;;
5785;SDS011;2919;48.630;9.000;2023-04-25T03:12:40;3.40;;;1.83;;
5785;SDS011;2919;48.630;9.000;2023-04-25T03:15:06;3.57;;;1.13;;
5785;SDS011;2919;48.630;9.000;2023-04-25T03:17:32;4.40;;;1.40;;
5785;SDS011;2919;48.630;9.000;2023-04-25T03:19:57;2.60;;;1.20;;
5785;SDS011;2919;48.630;9.000;2023-04-25T03:22:23;3.57;;;1.20;;
5785;SDS011;2919;48.630;9.000;2023-04-25T03:24:49;4.53;;;1.17;;
5785;SDS011;2919;48.630;9.000;2023-04-25T03:27:15;2.17;;;1.10;;
5785;SDS011;2919;48.630;9.000;2023-04-25T03:29:41;3.03;;;1.27;;
5785;SDS011;2919;48.630;9.000;2023-04-25T03:32:06;4.30;;;1.63;;
5785;SDS011;2919;48.630;9.000;2023-04-25T03:34:32;2.23;;;1.20;;
5785;SDS011;2919;48.630;9.000;2023-04-25T03:36:58;2.30;;;1.00;;
5785;SDS011;2919;48.630;9.000;2023-04-25T03:39:24;2.27;;;1.00;;
5785;SDS011;2919;48.630;9.000;2023-04-25T03:41:50;2.57;;;1.43;;
5785;SDS011;2919;48.630;9.000;2023-04-25T03:44:16;3.43;;;1.37;;
5785;SDS011;2919;48.630;9.000;2023-04-25T03:46:41;4.33;;;2.03;;
5785;SDS011;2919;48.630;9.000;2023-04-25T03:49:07;3.30;;;1.30;;
5785;SDS011;2919;48.630;9.000;2023-04-25T03:51:32;3.43;;;1.37;;
5785;SDS011;2919;48.630;9.000;2023-04-25T03:53:58;3.40;;;1.93;;
5785;SDS011;2919;48.630;9.000;2023-04-25T03:56:24;2.63;;;1.27;;
5785;SDS011;2919;48.630;9.000;2023-04-25T03:58:49;2.50;;;1.90;;
5785;SDS011;2919;48.630;9.000;2023-04-25T04:01:15;4.90;;;1.50;;
5785;SDS011;2919;48.630;9.000;2023-04-25T04:03:41;6.23;;;2.33;;
5785;SDS011;2919;48.630;9.000;2023-04-25T04:06:06;2.17;;;1.47;;
5785;SDS011;2919;48.630;9.000;2023-04-25T04:08:33;3.43;;;1.83;;
5785;SDS011;2919;48.630;9.000;2023-04-25T04:10:59;4.53;;;2.53;;
5785;SDS011;2919;48.630;9.000;2023-04-25T04:13:25;5.20;;;1.53;;
5785;SDS011;2919;48.630;9.000;2023-04-25T04:15:52;8.10;;;1.60;;
5785;SDS011;2919;48.630;9.000;2023-04-25T04:18:17;6.10;;;1.60;;
5785;SDS011;2919;48.630;9.000;2023-04-25T04:20:43;2.30;;;1.23;;
5785;SDS011;2919;48.630;9.000;2023-04-25T04:23:09;3.13;;;1.50;;
5785;SDS011;2919;48.630;9.000;2023-04-25T04:25:35;4.17;;;2.30;;
5785;SDS011;2919;48.630;9.000;2023-04-25T04:28:01;3.30;;;1.63;;
5785;SDS011;2919;48.630;9.000;2023-04-25T04:30:27;3.37;;;1.90;;
5785;SDS011;2919;48.630;9.000;2023-04-25T04:32:56;2.17;;;1.37;;
5785;SDS011;2919;48.630;9.000;2023-04-25T04:35:22;3.00;;;2.00;;
5785;SDS011;2919;48.630;9.000;2023-04-25T04:37:48;4.20;;;1.80;;
5785;SDS011;2919;48.630;9.000;2023-04-25T04:40:15;3.50;;;1.90;;
5785;SDS011;2919;48.630;9.000;2023-04-25T04:42:41;6.50;;;2.60;;
5785;SDS011;2919;48.630;9.000;2023-04-25T04:45:08;4.20;;;1.70;;
5785;SDS011;2919;48.630;9.000;2023-04-25T04:47:35;2.40;;;1.70;;
5785;SDS011;2919;48.630;9.000;2023-04-25T04:50:01;6.10;;;1.80;;
5785;SDS011;2919;48.630;9.000;2023-04-25T04:52:34;4.43;;;1.93;;
5785;SDS011;2919;48.630;9.000;2023-04-25T04:55:01;5.97;;;1.97;;
5785;SDS011;2919;48.630;9.000;2023-04-25T04:57:28;3.43;;;1.83;;
5785;SDS011;2919;48.630;9.000;2023-04-25T04:59:54;10.50;;;2.33;;
5785;SDS011;2919;48.630;9.000;2023-04-25T05:02:19;4.10;;;2.50;;
5785;SDS011;2919;48.630;9.000;2023-04-25T05:04:45;4.57;;;2.00;;
5785;SDS011;2919;48.630;9.000;2023-04-25T05:07:11;4.03;;;2.50;;
5785;SDS011;2919;48.630;9.000;2023-04-25T05:09:37;3.63;;;2.03;;
5785;SDS011;2919;48.630;9.000;2023-04-25T05:12:03;5.07;;;1.90;;
5785;SDS011;2919;48.630;9.000;2023-04-25T05:14:28;6.67;;;2.60;;
5785;SDS011;2919;48.630;9.000;2023-04-25T05:16:54;3.90;;;2.17;;
5785;SDS011;2919;48.630;9.000;2023-04-25T05:19:20;4.90;;;2.10;;
5785;SDS011;2919;48.630;9.000;2023-04-25T05:21:45;7.10;;;1.97;;
5785;SDS011;2919;48.630;9.000;2023-04-25T05:24:11;3.20;;;1.80;;
5785;SDS011;2919;48.630;9.000;2023-04-25T05:26:37;2.97;;;1.60;;
5785;SDS011;2919;48.630;9.000;2023-04-25T05:29:02;18.77;;;1.83;;
5785;SDS011;2919;48.630;9.000;2023-04-25T05:31:28;4.07;;;1.80;;
5785;SDS011;2919;48.630;9.000;2023-04-25T05:33:54;3.97;;;2.03;;
5785;SDS011;2919;48.630;9.000;2023-04-25T05:36:20;7.40;;;2.20;;
5785;SDS011;2919;48.630;9.000;2023-04-25T05:38:46;1.73;;;1.30;;
5785;SDS011;2919;48.630;9.000;2023-04-25T05:41:11;4.13;;;2.20;;
5785;SDS011;2919;48.630;9.000;2023-04-25T05:43:37;4.10;;;2.13;;
5785;SDS011;2919;48.630;9.000;2023-04-25T05:46:03;2.20;;;1.23;;
5785;SDS011;2919;48.630;9.000;2023-04-25T05:48:29;15.63;;;2.40;;
5785;SDS011;2919;48.630;9.000;2023-04-25T05:50:55;3.00;;;1.50;;
5785;SDS011;2919;48.630;9.000;2023-04-25T05:53:21;3.07;;;2.03;;
5785;SDS011;2919;48.630;9.000;2023-04-25T05:55:47;4.30;;;2.00;;
5785;SDS011;2919;48.630;9.000;2023-04-25T05:58:12;3.27;;;2.10;;
5785;SDS011;2919;48.630;9.000;2023-04-25T06:00:38;3.43;;;1.50;;
5785;SDS011;2919;48.630;9.000;2023-04-25T06:03:04;3.50;;;1.20;;
5785;SDS011;2919;48.630;9.000;2023-04-25T06:05:29;4.23;;;1.70;;
5785;SDS011;2919;48.630;9.000;2023-04-25T06:07:55;5.70;;;2.07;;
5785;SDS011;2919;48.630;9.000;2023-04-25T06:10:21;3.17;;;2.00;;
5785;SDS011;2919;48.630;9.000;2023-04-25T06:12:47;4.90;;;1.93;;
5785;SDS011;2919;48.630;9.000;2023-04-25T06:15:13;3.03;;;1.63;;
5785;SDS011;2919;48.630;9.000;2023-04-25T06:17:38;3.20;;;1.93;;
5785;SDS011;2919;48.630;9.000;2023-04-25T06:20:04;2.77;;;1.10;;
5785;SDS011;2919;48.630;9.000;2023-04-25T06:22:31;3.87;;;1.77;;
5785;SDS011;2919;48.630;9.000;2023-04-25T06:24:56;3.27;;;2.00;;
5785;SDS011;2919;48.630;9.000;2023-04-25T06:27:23;4.73;;;2.13;;
5785;SDS011;2919;48.630;9.000;2023-04-25T06:29:49;4.33;;;2.37;;
5785;SDS011;2919;48.630;9.000;2023-04-25T06:32:15;10.97;;;2.70;;
5785;SDS011;2919;48.630;9.000;2023-04-25T06:34:40;5.00;;;2.27;;
5785;SDS011;2919;48.630;9.000;2023-04-25T06:37:06;3.67;;;1.77;;
5785;SDS011;2919;48.630;9.000;2023-04-25T06:39:32;3.00;;;1.93;;
5785;SDS011;2919;48.630;9.000;2023-04-25T06:41:57;4.23;;;2.10;;
5785;SDS011;2919;48.630;9.000;2023-04-25T06:44:23;6.93;;;1.83;;
5785;SDS011;2919;48.630;9.000;2023-04-25T06:46:51;8.00;;;1.67;;
5785;SDS011;2919;48.630;9.000;2023-04-25T06:49:16;3.33;;;1.70;;
5785;SDS011;2919;48.630;9.000;2023-04-25T06:51:42;3.23;;;2.57;;
5785;SDS011;2919;48.630;9.000;2023-04-25T06:54:08;4.73;;;2.30;;
5785;SDS011;2919;48.630;9.000;2023-04-25T06:56:33;3.63;;;2.37;;
5785;SDS011;2919;48.630;9.000;2023-04-25T06:58:59;13.47;;;2.60;;
5785;SDS011;2919;48.630;9.000;2023-04-25T07:01:25;3.87;;;2.53;;
5785;SDS011;2919;48.630;9.000;2023-04-25T07:03:51;3.90;;;2.17;;
5785;SDS011;2919;48.630;9.000;2023-04-25T07:06:17;2.70;;;1.80;;
5785;SDS011;2919;48.630;9.000;2023-04-25T07:08:42;3.53;;;2.20;;
5785;SDS011;2919;48.630;9.000;2023-04-25T07:11:08;7.63;;;3.80;;
5785;SDS011;2919;48.630;9.000;2023-04-25T07:13:34;4.30;;;2.23;;
5785;SDS011;2919;48.630;9.000;2023-04-25T07:15:59;5.07;;;2.70;;
5785;SDS011;2919;48.630;9.000;2023-04-25T07:18:25;3.40;;;2.30;;
5785;SDS011;2919;48.630;9.000;2023-04-25T07:20:51;4.80;;;2.70;;
5785;SDS011;2919;48.630;9.000;2023-04-25T07:23:16;3.70;;;2.27;;
5785;SDS011;2919;48.630;9.000;2023-04-25T07:25:42;4.00;;;2.07;;
5785;SDS011;2919;48.630;9.000;2023-04-25T07:28:07;4.90;;;2.73;;
5785;SDS011;2919;48.630;9.000;2023-04-25T07:30:33;4.23;;;2.77;;
5785;SDS011;2919;48.630;9.000;2023-04-25T07:32:59;7.90;;;3.17;;
5785;SDS011;2919;48.630;9.000;2023-04-25T07:35:25;7.17;;;2.83;;
5785;SDS011;2919;48.630;9.000;2023-04-25T07:37:51;6.63;;;2.23;;
5785;SDS011;2919;48.630;9.000;2023-04-25T07:40:16;4.40;;;2.60;;
5785;SDS011;2919;48.630;9.000;2023-04-25T07:42:42;8.60;;;3.10;;
5785;SDS011;2919;48.630;9.000;2023-04-25T07:45:08;5.30;;;2.60;;
5785;SDS011;2919;48.630;9.000;2023-04-25T07:47:34;9.50;;;3.17;;
5785;SDS011;2919;48.630;9.000;2023-04-25T07:50:00;3.80;;;2.00;;
5785;SDS011;2919;48.630;9.000;2023-04-25T07:52:26;3.77;;;2.30;;
5785;SDS011;2919;48.630;9.000;2023-04-25T07:54:51;3.83;;;2.43;;
5785;SDS011;2919;48.630;9.000;2023-04-25T07:57:17;4.33;;;2.40;;
5785;SDS011;2919;48.630;9.000;2023-04-25T07:59:44;5.30;;;2.87;;
5785;SDS011;2919;48.630;9.000;2023-04-25T08:02:10;4.30;;;2.57;;
5785;SDS011;2919;48.630;9.000;2023-04-25T08:04:35;15.23;;;2.53;;
5785;SDS011;2919;48.630;9.000;2023-04-25T08:07:01;6.70;;;3.23;;
5785;SDS011;2919;48.630;9.000;2023-04-25T08:09:27;3.73;;;2.10;;
5785;SDS011;2919;48.630;9.000;2023-04-25T08:11:52;3.03;;;1.80;;
5785;SDS011;2919;48.630;9.000;2023-04-25T08:14:18;7.20;;;2.20;;
5785;SDS011;2919;48.630;9.000;2023-04-25T08:16:44;4.50;;;3.07;;
5785;SDS011;2919;48.630;9.000;2023-04-25T08:19:10;3.07;;;1.73;;
5785;SDS011;2919;48.630;9.000;2023-04-25T08:21:36;2.50;;;1.73;;
5785;SDS011;2919;48.630;9.000;2023-04-25T08:24:01;2.80;;;1.80;;
5785;SDS011;2919;48.630;9.000;2023-04-25T08:26:28;4.47;;;1.60;;
5785;SDS011;2919;48.630;9.000;2023-04-25T08:28:53;4.50;;;1.80;;
5785;SDS011;2919;48.630;9.000;2023-04-25T08:31:19;5.10;;;2.63;;
5785;SDS011;2919;48.630;9.000;2023-04-25T08:33:45;5.17;;;2.53;;
5785;SDS011;2919;48.630;9.000;2023-04-25T08:36:11;3.10;;;1.50;;
5785;SDS011;2919;48.630;9.000;2023-04-25T08:38:37;3.83;;;1.40;;
5785;SDS011;2919;48.630;9.000;2023-04-25T08:41:03;3.40;;;1.73;;
5785;SDS011;2919;48.630;9.000;2023-04-25T08:43:30;8.70;;;3.83;;
5785;SDS011;2919;48.630;9.000;2023-04-25T08:45:59;4.83;;;2.10;;
5785;SDS011;2919;48.630;9.000;2023-04-25T08:48:29;4.07;;;2.60;;
5785;SDS011;2919;48.630;9.000;2023-04-25T08:50:57;4.87;;;2.50;;
5785;SDS011;2919;48.630;9.000;2023-04-25T08:53:27;5.53;;;2.87;;
5785;SDS011;2919;48.630;9.000;2023-04-25T08:55:55;5.50;;;2.73;;
5785;SDS011;2919;48.630;9.000;2023-04-25T08:58:21;5.53;;;2.20;;
5785;SDS011;2919;48.630;9.000;2023-04-25T09:00:48;5.20;;;2.80;;
5785;SDS011;2919;48.630;9.000;2023-04-25T09:03:14;5.80;;;2.90;;
5785;SDS011;2919;48.630;9.000;2023-04-25T09:05:41;5.40;;;2.60;;
5785;SDS011;2919;48.630;9.000;2023-04-25T09:08:07;5.90;;;2.13;;
5785;SDS011;2919;48.630;9.000;2023-04-25T09:10:32;4.40;;;2.40;;
5785;SDS011;2919;48.630;9.000;2023-04-25T09:13:09;2.47;;;1.47;;
5785;SDS011;2919;48.630;9.000;2023-04-25T09:18:25;3.53;;;1.83;;
5785;SDS011;2919;48.630;9.000;2023-04-25T09:20:54;3.70;;;2.10;;
5785;SDS011;2919;48.630;9.000;2023-04-25T09:23:22;3.23;;;1.90;;
5785;SDS011;2919;48.630;9.000;2023-04-25T09:25:49;3.80;;;2.00;;
5785;SDS011;2919;48.630;9.000;2023-04-25T09:28:16;2.83;;;1.47;;
5785;SDS011;2919;48.630;9.000;2023-04-25T09:30:42;3.10;;;1.23;;
5785;SDS011;2919;48.630;9.000;2023-04-25T09:33:11;2.87;;;1.67;;
5785;SDS011;2919;48.630;9.000;2023-04-25T09:35:38;5.40;;;1.43;;
5785;SDS011;2919;48.630;9.000;2023-04-25T09:38:18;4.33;;;1.33;;
5785;SDS011;2919;48.630;9.000;2023-04-25T09:40:44;1.93;;;1.30;;
5785;SDS011;2919;48.630;9.000;2023-04-25T09:45:46;1.63;;;1.07;;
5785;SDS011;2919;48.630;9.000;2023-04-25T09:48:16;1.60;;;0.93;;
5785;SDS011;2919;48.630;9.000;2023-04-25T09:51:06;1.30;;;0.60;;
5785;SDS011;2919;48.630;9.000;2023-04-25T09:53:36;3.03;;;1.30;;
5785;SDS011;2919;48.630;9.000;2023-04-25T09:56:06;1.50;;;0.70;;
5785;SDS011;2919;48.630;9.000;2023-04-25T09:58:33;2.13;;;0.80;;
5785;SDS011;2919;48.630;9.000;2023-04-25T10:01:04;1.67;;;0.60;;
5785;SDS011;2919;48.630;9.000;2023-04-25T10:03:31;1.83;;;0.70;;
5785;SDS011;2919;48.630;9.000;2023-04-25T10:06:02;1.50;;;0.90;;
5785;SDS011;2919;48.630;9.000;2023-04-25T10:08:32;1.30;;;0.70;;
5785;SDS011;2919;48.630;9.000;2023-04-25T10:11:00;18.33;;;0.97;;
5785;SDS011;2919;48.630;9.000;2023-04-25T10:13:28;2.17;;;0.80;;
5785;SDS011;2919;48.630;9.000;2023-04-25T10:15:55;2.43;;;0.70;;
5785;SDS011;2919;48.630;9.000;2023-04-25T10:18:26;1.90;;;0.97;;
5785;SDS011;2919;48.630;9.000;2023-04-25T10:20:56;1.20;;;0.50;;
5785;SDS011;2919;48.630;9.000;2023-04-25T10:23:24;1.73;;;0.70;;
5785;SDS011;2919;48.630;9.000;2023-04-25T10:25:51;2.10;;;0.90;;
5785;SDS011;2919;48.630;9.000;2023-04-25T10:28:17;1.50;;;0.80;;
5785;SDS011;2919;48.630;9.000;2023-04-25T10:31:00;1.60;;;0.67;;
5785;SDS011;2919;48.630;9.000;2023-04-25T10:33:29;1.20;;;0.57;;
5785;SDS011;2919;48.630;9.000;2023-04-25T10:36:08;1.50;;;0.50;;
5785;SDS011;2919;48.630;9.000;2023-04-25T10:38:36;1.20;;;0.50;;
5785;SDS011;2919;48.630;9.000;2023-04-25T10:41:03;3.10;;;1.03;;
5785;SDS011;2919;48.630;9.000;2023-04-25T10:43:39;1.70;;;0.90;;
5785;SDS011;2919;48.630;9.000;2023-04-25T10:46:13;1.10;;;0.60;;
5785;SDS011;2919;48.630;9.000;2023-04-25T10:48:43;1.20;;;0.60;;
5785;SDS011;2919;48.630;9.000;2023-04-25T10:51:17;1.30;;;0.60;;
5785;SDS011;2919;48.630;9.000;2023-04-25T11:01:41;1.10;;;0.40;;
5785;SDS011;2919;48.630;9.000;2023-04-25T11:07:00;1.10;;;0.40;;
5785;SDS011;2919;48.630;9.000;2023-04-25T11:09:30;1.30;;;0.60;;
5785;SDS011;2919;48.630;9.000;2023-04-25T11:11:57;1.40;;;0.47;;
5785;SDS011;2919;48.630;9.000;2023-04-25T11:14:25;1.20;;;0.50;;
5785;SDS011;2919;48.630;9.000;2023-04-25T11:16:55;2.13;;;0.60;;
5785;SDS011;2919;48.630;9.000;2023-04-25T11:19:22;2.00;;;0.60;;
5785;SDS011;2919;48.630;9.000;2023-04-25T11:21:48;1.70;;;0.53;;
5785;SDS011;2919;48.630;9.000;2023-04-25T11:24:15;3.00;;;0.80;;
5785;SDS011;2919;48.630;9.000;2023-04-25T11:26:42;1.87;;;0.50;;
5785;SDS011;2919;48.630;9.000;2023-04-25T11:29:11;1.20;;;0.50;;
5785;SDS011;2919;48.630;9.000;2023-04-25T11:31:37;1.87;;;0.90;;
5785;SDS011;2919;48.630;9.000;2023-04-25T11:34:02;1.37;;;0.70;;
5785;SDS011;2919;48.630;9.000;2023-04-25T11:36:28;1.90;;;0.80;;
5785;SDS011;2919;48.630;9.000;2023-04-25T11:38:54;1.80;;;0.70;;
5785;SDS011;2919;48.630;9.000;2023-04-25T11:41:19;1.63;;;0.63;;
5785;SDS011;2919;48.630;9.000;2023-04-25T11:43:47;1.20;;;0.50;;
5785;SDS011;2919;48.630;9.000;2023-04-25T11:46:13;3.40;;;0.90;;
5785;SDS011;2919;48.630;9.000;2023-04-25T11:48:39;3.43;;;0.73;;
5785;SDS011;2919;48.630;9.000;2023-04-25T11:51:05;1.93;;;0.70;;
5785;SDS011;2919;48.630;9.000;2023-04-25T11:53:31;1.67;;;0.67;;
5785;SDS011;2919;48.630;9.000;2023-04-25T11:55:58;2.00;;;1.10;;
5785;SDS011;2919;48.630;9.000;2023-04-25T11:58:23;2.00;;;1.10;;
5785;SDS011;2919;48.630;9.000;2023-04-25T12:00:50;2.57;;;1.23;;
5785;SDS011;2919;48.630;9.000;2023-04-25T12:03:15;2.60;;;0.83;;
5785;SDS011;2919;48.630;9.000;2023-04-25T12:05:42;3.60;;;1.50;;
5785;SDS011;2919;48.630;9.000;2023-04-25T12:08:13;2.53;;;1.50;;
5785;SDS011;2919;48.630;9.000;2023-04-25T12:10:41;4.03;;;2.10;;
5785;SDS011;2919;48.630;9.000;2023-04-25T12:13:26;6.10;;;2.50;;
5785;SDS011;2919;48.630;9.000;2023-04-25T12:15:56;7.87;;;2.40;;
5785;SDS011;2919;48.630;9.000;2023-04-25T12:18:25;26.23;;;9.17;;
5785;SDS011;2919;48.630;9.000;2023-04-25T12:20:54;7.43;;;3.43;;
5785;SDS011;2919;48.630;9.000;2023-04-25T12:23:28;2.70;;;1.40;;
5785;SDS011;2919;48.630;9.000;2023-04-25T12:25:55;3.57;;;1.83;;
5785;SDS011;2919;48.630;9.000;2023-04-25T12:28:21;2.17;;;1.43;;
5785;SDS011;2919;48.630;9.000;2023-04-25T12:33:24;3.17;;;1.90;;
5785;SDS011;2919;48.630;9.000;2023-04-25T12:35:54;7.53;;;2.27;;
5785;SDS011;2919;48.630;9.000;2023-04-25T12:38:27;2.80;;;1.87;;
5785;SDS011;2919;48.630;9.000;2023-04-25T12:40:55;4.60;;;2.00;;
5785;SDS011;2919;48.630;9.000;2023-04-25T12:43:21;6.73;;;3.27;;
5785;SDS011;2919;48.630;9.000;2023-04-25T12:45:48;4.37;;;2.33;;
5785;SDS011;2919;48.630;9.000;2023-04-25T12:48:17;3.50;;;1.80;;
5785;SDS011;2919;48.630;9.000;2023-04-25T12:50:44;6.00;;;2.70;;
5785;SDS011;2919;48.630;9.000;2023-04-25T12:53:10;2.83;;;1.67;;
5785;SDS011;2919;48.630;9.000;2023-04-25T12:55:36;3.60;;;2.20;;
5785;SDS011;2919;48.630;9.000;2023-04-25T12:58:02;5.63;;;2.63;;
5785;SDS011;2919;48.630;9.000;2023-04-25T13:00:28;3.47;;;2.23;;
5785;SDS011;2919;48.630;9.000;2023-04-25T13:02:54;6.10;;;2.07;;
5785;SDS011;2919;48.630;9.000;2023-04-25T13:05:20;3.97;;;2.07;;
5785;SDS011;2919;48.630;9.000;2023-04-25T13:07:46;2.80;;;1.83;;
5785;SDS011;2919;48.630;9.000;2023-04-25T13:10:11;4.20;;;1.70;;
5785;SDS011;2919;48.630;9.000;2023-04-25T13:12:37;5.10;;;2.50;;
5785;SDS011;2919;48.630;9.000;2023-04-25T13:15:02;4.80;;;2.40;;
5785;SDS011;2919;48.630;9.000;2023-04-25T13:17:28;3.40;;;1.70;;
5785;SDS011;2919;48.630;9.000;2023-04-25T13:19:54;3.13;;;1.83;;
5785;SDS011;2919;48.630;9.000;2023-04-25T13:22:20;3.60;;;2.07;;
5785;SDS011;2919;48.630;9.000;2023-04-25T13:24:46;4.10;;;2.50;;
5785;SDS011;2919;48.630;9.000;2023-04-25T13:27:12;4.30;;;2.20;;
5785;SDS011;2919;48.630;9.000;2023-04-25T13:29:38;4.30;;;2.40;;
5785;SDS011;2919;48.630;9.000;2023-04-25T13:32:05;7.40;;;2.40;;
5785;SDS011;2919;48.630;9.000;2023-04-25T13:34:31;5.17;;;2.50;;
5785;SDS011;2919;48.630;9.000;2023-04-25T13:36:57;4.57;;;1.83;;
5785;SDS011;2919;48.630;9.000;2023-04-25T13:39:23;2.97;;;1.80;;
5785;SDS011;2919;48.630;9.000;2023-04-25T13:41:49;4.97;;;2.30;;
5785;SDS011;2919;48.630;9.000;2023-04-25T13:44:14;8.43;;;2.90;;
5785;SDS011;2919;48.630;9.000;2023-04-25T13:46:40;6.53;;;3.30;;
5785;SDS011;2919;48.630;9.000;2023-04-25T13:49:05;5.47;;;3.43;;
5785;SDS011;2919;48.630;9.000;2023-04-25T13:51:31;5.37;;;3.10;;
5785;SDS011;2919;48.630;9.000;2023-04-25T13:53:57;7.70;;;3.73;;
5785;SDS011;2919;48.630;9.000;2023-04-25T13:56:23;7.13;;;3.00;;
5785;SDS011;2919;48.630;9.000;2023-04-25T13:58:50;5.33;;;3.00;;
5785;SDS011;2919;48.630;9.000;2023-04-25T14:01:16;5.60;;;2.40;;
5785;SDS011;2919;48.630;9.000;2023-04-25T14:03:42;5.63;;;2.50;;
5785;SDS011;2919;48.630;9.000;2023-04-25T14:06:08;3.47;;;2.30;;
5785;SDS011;2919;48.630;9.000;2023-04-25T14:08:34;4.00;;;2.30;;
5785;SDS011;2919;48.630;9.000;2023-04-25T14:10:59;7.00;;;2.23;;
5785;SDS011;2919;48.630;9.000;2023-04-25T14:13:25;3.60;;;2.20;;
5785;SDS011;2919;48.630;9.000;2023-04-25T14:15:51;3.80;;;2.63;;
5785;SDS011;2919;48.630;9.000;2023-04-25T14:18:17;5.60;;;2.53;;
5785;SDS011;2919;48.630;9.000;2023-04-25T14:20:43;3.40;;;2.57;;
5785;SDS011;2919;48.630;9.000;2023-04-25T14:23:09;4.20;;;3.37;;
5785;SDS011;2919;48.630;9.000;2023-04-25T14:25:35;8.70;;;3.20;;
5785;SDS011;2919;48.630;9.000;2023-04-25T14:28:01;3.83;;;2.40;;
5785;SDS011;2919;48.630;9.000;2023-04-25T14:30:27;8.17;;;3.50;;
5785;SDS011;2919;48.630;9.000;2023-04-25T14:32:53;4.23;;;2.53;;
5785;SDS011;2919;48.630;9.000;2023-04-25T14:35:19;5.40;;;2.10;;
5785;SDS011;2919;48.630;9.000;2023-04-25T14:37:45;4.30;;;2.10;;
5785;SDS011;2919;48.630;9.000;2023-04-25T14:40:10;3.20;;;2.00;;
5785;SDS011;2919;48.630;9.000;2023-04-25T14:42:38;4.80;;;2.00;;
5785;SDS011;2919;48.630;9.000;2023-04-25T14:45:07;3.40;;;2.13;;
5785;SDS011;2919;48.630;9.000;2023-04-25T14:47:33;3.80;;;2.23;;
5785;SDS011;2919;48.630;9.000;2023-04-25T14:50:00;6.07;;;2.53;;
5785;SDS011;2919;48.630;9.000;2023-04-25T14:52:26;4.53;;;2.00;;
5785;SDS011;2919;48.630;9.000;2023-04-25T14:54:52;3.80;;;1.90;;
5785;SDS011;2919;48.630;9.000;2023-04-25T14:57:17;4.07;;;2.10;;
5785;SDS011;2919;48.630;9.000;2023-04-25T14:59:43;3.93;;;1.83;;
5785;SDS011;2919;48.630;9.000;2023-04-25T15:02:09;4.23;;;2.20;;
5785;SDS011;2919;48.630;9.000;2023-04-25T15:04:35;2.60;;;1.53;;
5785;SDS011;2919;48.630;9.000;2023-04-25T15:07:01;2.80;;;1.70;;
5785;SDS011;2919;48.630;9.000;2023-04-25T15:09:26;2.83;;;1.60;;
5785;SDS011;2919;48.630;9.000;2023-04-25T15:11:52;3.80;;;1.70;;
5785;SDS011;2919;48.630;9.000;2023-04-25T15:14:18;2.00;;;1.20;;
5785;SDS011;2919;48.630;9.000;2023-04-25T15:16:43;3.70;;;1.57;;
5785;SDS011;2919;48.630;9.000;2023-04-25T15:19:09;2.50;;;1.50;;
5785;SDS011;2919;48.630;9.000;2023-04-25T15:21:35;2.33;;;1.20;;
5785;SDS011;2919;48.630;9.000;2023-04-25T15:24:01;3.00;;;1.43;;
5785;SDS011;2919;48.630;9.000;2023-04-25T15:26:26;1.80;;;1.00;;
5785;SDS011;2919;48.630;9.000;2023-04-25T15:28:52;2.37;;;1.47;;